createdAt,value
2024-02-03T00:00:07.184Z,65.13
2024-02-03T00:02:34.170Z,64.81
2024-02-03T00:05:00.698Z,65.24
2024-02-03T00:07:27.726Z,64.72
2024-02-03T00:09:54.510Z,65.41
2024-02-03T00:12:27.182Z,64.98
2024-02-03T00:14:53.958Z,65.74
2024-02-03T00:17:20.594Z,65.06
2024-02-03T00:19:47.409Z,65.31
2024-02-03T00:22:14.179Z,65.72
2024-02-03T00:24:40.876Z,64.91
2024-02-03T00:27:07.794Z,64.78
2024-02-03T00:29:35.462Z,64.54
2024-02-03T00:32:02.128Z,65.33
2024-02-03T00:34:28.857Z,64.80
2024-02-03T00:36:55.449Z,65.08
2024-02-03T00:39:22.052Z,64.50
2024-02-03T00:41:48.668Z,64.75
2024-02-03T00:44:16.595Z,64.67
2024-02-03T00:46:43.404Z,64.34
2024-02-03T00:49:10.033Z,64.45
2024-02-03T00:51:36.626Z,64.66
2024-02-03T00:54:03.244Z,64.78
2024-02-03T00:56:29.909Z,64.78
2024-02-03T00:58:56.394Z,64.77
2024-02-03T01:01:23.020Z,65.57
2024-02-03T01:03:49.861Z,64.83
2024-02-03T01:06:16.588Z,65.68
2024-02-03T01:08:43.176Z,64.77
2024-02-03T01:11:09.774Z,65.19
2024-02-03T01:13:36.379Z,64.30
2024-02-03T01:16:03.211Z,64.63
2024-02-03T01:18:29.846Z,64.45
2024-02-03T01:20:56.597Z,65.48
2024-02-03T01:23:23.113Z,65.10
2024-02-03T01:25:50.743Z,64.97
2024-02-03T01:28:17.302Z,65.28
2024-02-03T01:30:44.039Z,64.58
2024-02-03T01:33:10.654Z,64.88
2024-02-03T01:35:37.274Z,64.23
2024-02-03T01:38:03.843Z,64.45
2024-02-03T01:40:30.502Z,64.95
2024-02-03T01:43:03.423Z,66.02
2024-02-03T01:45:30.268Z,64.99
2024-02-03T01:47:58.180Z,65.66
2024-02-03T01:50:26.821Z,65.05
2024-02-03T01:52:54.148Z,64.34
2024-02-03T01:55:21.371Z,64.21
2024-02-03T01:57:49.534Z,63.60
2024-02-03T02:00:16.938Z,63.53
2024-02-03T02:02:43.662Z,63.58
2024-02-03T02:05:10.517Z,64.22
2024-02-03T02:07:46.023Z,65.68
2024-02-03T02:10:13.981Z,64.39
2024-02-03T02:12:40.708Z,63.84
2024-02-03T02:15:07.582Z,63.32
2024-02-03T02:17:34.639Z,64.80
2024-02-03T02:20:08.320Z,63.49
2024-02-03T02:22:35.548Z,63.73
2024-02-03T02:25:02.453Z,64.55
2024-02-03T02:27:28.981Z,63.55
2024-02-03T02:29:55.514Z,63.82
2024-02-03T02:32:22.006Z,62.78
2024-02-03T02:34:48.765Z,62.76
2024-02-03T02:37:15.855Z,64.24
2024-02-03T02:39:42.381Z,63.25
2024-02-03T02:42:09.904Z,62.62
2024-02-03T02:44:36.464Z,63.01
2024-02-03T02:47:02.999Z,62.72
2024-02-03T02:49:29.827Z,63.92
2024-02-03T02:51:56.464Z,63.76
2024-02-03T02:54:23.068Z,62.47
2024-02-03T02:56:49.544Z,62.49
2024-02-03T02:59:17.700Z,62.79
2024-02-03T03:01:44.548Z,62.99
2024-02-03T03:04:11.292Z,62.50
2024-02-03T03:06:37.943Z,61.92
2024-02-03T03:09:26.785Z,62.07
2024-02-03T03:11:53.845Z,62.06
2024-02-03T03:14:20.486Z,62.01
2024-02-03T03:16:47.013Z,62.81
2024-02-03T03:19:13.585Z,62.56
2024-02-03T03:21:40.170Z,63.27
2024-02-03T03:24:07.142Z,62.43
2024-02-03T03:26:33.793Z,62.37
2024-02-03T03:29:00.341Z,62.60
2024-02-03T03:31:26.821Z,62.33
2024-02-03T03:33:53.426Z,62.38
2024-02-03T03:36:20.058Z,63.03
2024-02-03T03:38:52.624Z,62.50
2024-02-03T03:41:19.157Z,62.71
2024-02-03T03:43:46.935Z,62.59
2024-02-03T03:46:13.447Z,64.24
2024-02-03T03:48:40.148Z,62.71
2024-02-03T03:51:15.361Z,62.65
2024-02-03T03:53:41.953Z,62.37
2024-02-03T03:56:08.467Z,62.75
2024-02-03T03:58:34.935Z,62.30
2024-02-03T04:01:01.590Z,62.74
2024-02-03T04:03:28.125Z,63.20
2024-02-03T04:05:54.994Z,62.83
2024-02-03T04:11:16.855Z,65.46
2024-02-03T04:13:43.332Z,64.77
2024-02-03T04:16:09.910Z,64.70
2024-02-03T04:18:41.644Z,66.04
2024-02-03T04:21:08.294Z,64.27
2024-02-03T04:23:38.817Z,65.64
2024-02-03T04:26:05.633Z,65.96
2024-02-03T04:28:32.177Z,65.90
2024-02-03T04:30:59.883Z,64.67
2024-02-03T04:33:26.645Z,65.56
2024-02-03T04:35:53.200Z,65.76
2024-02-03T04:38:19.715Z,64.06
2024-02-03T04:40:46.233Z,66.29
2024-02-03T04:43:12.706Z,64.32
2024-02-03T04:45:39.249Z,65.77
2024-02-03T04:48:06.389Z,65.08
2024-02-03T04:50:34.398Z,63.27
2024-02-03T04:53:01.007Z,63.96
2024-02-03T04:55:27.444Z,64.89
2024-02-03T04:57:54.032Z,64.09
2024-02-03T05:00:20.752Z,63.63
2024-02-03T05:02:47.315Z,66.41
2024-02-03T05:05:13.818Z,65.17
2024-02-03T05:07:40.304Z,64.56
2024-02-03T05:10:07.176Z,65.71
2024-02-03T05:15:05.849Z,66.35
2024-02-03T05:17:33.464Z,65.21
2024-02-03T05:19:59.972Z,65.43
2024-02-03T05:22:26.464Z,65.94
2024-02-03T05:24:53.138Z,66.84
2024-02-03T05:27:20.565Z,66.47
2024-02-03T05:29:47.182Z,66.15
2024-02-03T05:32:14.276Z,67.55
2024-02-03T05:34:40.966Z,67.03
2024-02-03T05:37:07.614Z,65.78
2024-02-03T05:39:34.245Z,65.80
2024-02-03T05:42:00.767Z,64.91
2024-02-03T05:44:27.217Z,65.13
2024-02-03T05:46:53.676Z,66.06
2024-02-03T05:49:20.277Z,66.79
2024-02-03T05:51:46.943Z,67.32
2024-02-03T05:54:13.551Z,64.32
2024-02-03T05:56:40.041Z,63.79
2024-02-03T05:59:21.733Z,62.72
2024-02-03T06:01:53.333Z,65.08
2024-02-03T06:04:19.898Z,67.36
2024-02-03T06:06:46.652Z,65.57
2024-02-03T06:09:20.193Z,65.12
2024-02-03T06:11:46.705Z,63.95
2024-02-03T06:14:13.185Z,64.87
2024-02-03T06:16:39.658Z,64.81
2024-02-03T06:19:06.298Z,64.24
2024-02-03T06:21:32.919Z,62.87
2024-02-03T06:23:59.434Z,63.22
2024-02-03T06:26:31.174Z,63.47
2024-02-03T06:28:58.175Z,64.00
2024-02-03T06:31:24.715Z,62.45
2024-02-03T06:33:51.376Z,63.34
2024-02-03T06:36:17.926Z,61.97
2024-02-03T06:38:44.741Z,66.37
2024-02-03T06:41:11.614Z,64.67
2024-02-03T06:43:41.488Z,65.77
2024-02-03T06:46:12.770Z,65.21
2024-02-03T06:48:39.351Z,63.92
2024-02-03T06:51:11.762Z,64.49
2024-02-03T06:53:47.622Z,64.37
2024-02-03T06:58:53.151Z,66.73
2024-02-03T07:01:19.736Z,66.65
2024-02-03T07:03:46.463Z,65.39
2024-02-03T07:06:13.303Z,64.14
2024-02-03T07:08:39.816Z,65.59
2024-02-03T07:11:07.078Z,65.39
2024-02-03T07:13:34.132Z,64.69
2024-02-03T07:16:00.708Z,65.89
2024-02-03T07:18:27.374Z,66.08
2024-02-03T07:20:54.388Z,66.15
2024-02-03T07:23:21.414Z,65.80
2024-02-03T07:25:48.214Z,64.55
2024-02-03T07:28:14.784Z,66.15
2024-02-03T07:30:41.380Z,63.16
2024-02-03T07:33:09.436Z,61.57
2024-02-03T07:35:36.276Z,62.99
2024-02-03T07:38:03.237Z,65.60
2024-02-03T07:40:29.772Z,64.47
2024-02-03T07:42:56.458Z,63.51
2024-02-03T07:45:23.701Z,63.51
2024-02-03T07:47:50.507Z,63.41
2024-02-03T07:50:17.133Z,61.81
2024-02-03T07:52:43.626Z,62.12
2024-02-03T07:55:10.083Z,62.39
2024-02-03T07:57:36.706Z,61.87
2024-02-03T08:00:03.648Z,62.65
2024-02-03T08:02:30.182Z,62.68
2024-02-03T08:04:56.987Z,61.87
2024-02-03T08:07:23.913Z,62.48
2024-02-03T08:09:50.649Z,61.85
2024-02-03T08:12:17.162Z,60.69
2024-02-03T08:14:43.726Z,58.88
2024-02-03T08:17:10.277Z,59.20
2024-02-03T08:19:40.643Z,59.47
2024-02-03T08:22:07.234Z,60.58
2024-02-03T08:24:33.778Z,60.69
2024-02-03T08:27:00.244Z,60.21
2024-02-03T08:29:26.704Z,60.74
2024-02-03T08:31:53.186Z,62.56
2024-02-03T08:34:19.872Z,61.27
2024-02-03T08:36:46.831Z,60.66
2024-02-03T08:39:46.578Z,59.65
2024-02-03T08:42:00.566Z,60.03
2024-02-03T08:44:27.054Z,60.60
2024-02-03T08:46:53.592Z,59.23
2024-02-03T08:49:20.299Z,58.71
2024-02-03T08:51:46.972Z,58.64
2024-02-03T08:54:13.465Z,59.37
2024-02-03T08:56:40.037Z,57.97
2024-02-03T08:59:06.547Z,58.85
2024-02-03T09:01:33.360Z,57.97
2024-02-03T09:03:59.996Z,57.80
2024-02-03T09:06:26.630Z,59.18
2024-02-03T09:09:08.562Z,57.65
2024-02-03T09:11:35.024Z,57.41
2024-02-03T09:14:04.425Z,57.63
2024-02-03T09:16:31.209Z,56.75
2024-02-03T09:18:57.731Z,57.94
2024-02-03T09:21:24.349Z,59.18
2024-02-03T09:23:50.900Z,58.27
2024-02-03T09:26:17.899Z,57.38
2024-02-03T09:28:44.377Z,58.10
2024-02-03T09:31:18.368Z,57.75
2024-02-03T09:33:45.253Z,57.07
2024-02-03T09:36:11.885Z,57.55
2024-02-03T09:38:44.898Z,56.86
2024-02-03T09:41:11.707Z,57.73
2024-02-03T09:43:38.276Z,58.73
2024-02-03T09:46:05.546Z,58.54
2024-02-03T09:48:32.167Z,58.37
2024-02-03T09:51:00.919Z,57.58
2024-02-03T09:53:27.776Z,58.55
2024-02-03T09:55:56.368Z,57.38
2024-02-03T09:58:24.846Z,57.66
2024-02-03T10:00:54.875Z,58.60
2024-02-03T10:03:22.133Z,57.70
2024-02-03T10:06:02.929Z,57.57
2024-02-03T10:08:30.343Z,57.27
2024-02-03T10:13:34.308Z,56.58
2024-02-03T10:16:02.792Z,56.99
2024-02-03T10:18:32.504Z,55.97
2024-02-03T10:21:04.195Z,57.41
2024-02-03T10:23:31.395Z,56.96
2024-02-03T10:26:02.111Z,55.82
2024-02-03T10:28:45.939Z,55.55
2024-02-03T10:31:21.741Z,54.32
2024-02-03T10:33:48.575Z,55.64
2024-02-03T10:36:15.284Z,55.54
2024-02-03T10:38:42.675Z,54.97
2024-02-03T10:41:12.274Z,55.11
2024-02-03T10:43:39.506Z,56.46
2024-02-03T10:46:07.112Z,56.24
2024-02-03T10:48:42.014Z,56.78
2024-02-03T10:51:19.275Z,56.69
2024-02-03T10:54:02.199Z,56.64
2024-02-03T10:56:31.555Z,56.90
2024-02-03T10:59:00.598Z,56.67
2024-02-03T11:01:35.409Z,55.85
2024-02-03T11:04:02.953Z,56.40
2024-02-03T11:06:31.609Z,56.24
2024-02-03T11:09:15.245Z,55.82
2024-02-03T11:11:44.127Z,56.02
2024-02-03T11:14:28.389Z,55.93
2024-02-03T11:17:02.822Z,55.30
2024-02-03T11:19:35.653Z,55.65
2024-02-03T11:22:04.486Z,55.57
2024-02-03T11:24:31.939Z,55.96
2024-02-03T11:27:08.664Z,55.52
2024-02-03T11:29:36.246Z,55.27
2024-02-03T11:32:04.978Z,55.01
2024-02-03T11:34:36.921Z,55.91
2024-02-03T11:37:04.766Z,56.13
2024-02-03T11:39:39.179Z,54.63
2024-02-03T11:42:10.412Z,55.24
2024-02-03T11:44:51.653Z,54.57
2024-02-03T11:47:20.823Z,54.99
2024-02-03T11:49:48.014Z,54.99
2024-02-03T11:52:14.661Z,56.16
2024-02-03T11:54:41.225Z,56.37
2024-02-03T11:57:08.751Z,56.63
2024-02-03T11:59:35.375Z,57.39
2024-02-03T12:02:01.938Z,57.58
2024-02-03T12:04:28.867Z,56.97
2024-02-03T12:06:57.838Z,58.38
2024-02-03T12:09:33.598Z,57.89
2024-02-03T12:12:00.615Z,57.13
2024-02-03T12:14:29.994Z,57.09
2024-02-03T12:16:58.787Z,57.37
2024-02-03T12:19:26.105Z,56.91
2024-02-03T12:21:52.983Z,57.10
2024-02-03T12:24:19.698Z,57.11
2024-02-03T12:26:46.247Z,56.91
2024-02-03T12:29:13.334Z,56.86
2024-02-03T12:31:40.186Z,57.15
2024-02-03T12:34:06.918Z,56.97
2024-02-03T12:36:33.674Z,57.28
2024-02-03T12:39:00.838Z,56.45
2024-02-03T12:41:27.527Z,57.16
2024-02-03T12:43:54.105Z,56.32
2024-02-03T12:46:22.943Z,55.17
2024-02-03T12:48:52.685Z,56.11
2024-02-03T12:51:19.933Z,56.04
2024-02-03T12:53:47.655Z,54.73
2024-02-03T12:56:14.647Z,55.66
2024-02-03T12:58:42.238Z,55.65
2024-02-03T13:01:09.686Z,55.39
2024-02-03T13:03:37.330Z,55.95
2024-02-03T13:06:04.610Z,55.22
2024-02-03T13:08:34.034Z,55.49
2024-02-03T13:11:01.200Z,55.06
2024-02-03T13:13:28.103Z,55.56
2024-02-03T13:15:54.932Z,55.79
2024-02-03T13:18:21.726Z,56.35
2024-02-03T13:21:12.601Z,56.08
2024-02-03T13:23:54.135Z,55.74
2024-02-03T13:26:22.969Z,55.70
2024-02-03T13:28:50.360Z,55.76
2024-02-03T13:31:17.351Z,55.90
2024-02-03T13:33:44.309Z,56.12
2024-02-03T13:36:11.285Z,56.49
2024-02-03T13:38:37.881Z,57.25
2024-02-03T13:41:08.614Z,57.66
2024-02-03T13:43:38.011Z,58.70
2024-02-03T13:46:04.778Z,58.88
2024-02-03T13:48:31.549Z,58.75
2024-02-03T13:50:58.215Z,58.49
2024-02-03T13:53:26.237Z,58.83
2024-02-03T13:55:54.041Z,58.56
2024-02-03T13:58:26.757Z,58.48
2024-02-03T14:00:53.649Z,57.31
2024-02-03T14:03:20.359Z,57.37
2024-02-03T14:05:47.051Z,58.01
2024-02-03T14:08:15.507Z,57.12
2024-02-03T14:10:42.685Z,56.94
2024-02-03T14:13:09.462Z,57.66
2024-02-03T14:15:36.116Z,56.97
2024-02-03T14:18:06.503Z,57.25
2024-02-03T14:20:33.770Z,56.05
2024-02-03T14:23:00.352Z,57.05
2024-02-03T14:25:26.972Z,56.62
2024-02-03T14:27:53.826Z,55.20
2024-02-03T14:30:20.289Z,55.95
2024-02-03T14:32:46.873Z,54.39
2024-02-03T14:35:13.731Z,55.41
2024-02-03T14:37:40.718Z,54.62
2024-02-03T14:40:07.797Z,55.14
2024-02-03T14:42:34.648Z,54.92
2024-02-03T14:45:01.116Z,53.92
2024-02-03T14:47:29.061Z,54.94
2024-02-03T14:49:56.796Z,55.08
2024-02-03T14:52:24.153Z,55.64
2024-02-03T14:54:51.346Z,54.81
2024-02-03T14:57:17.903Z,55.78
2024-02-03T14:59:44.448Z,56.08
2024-02-03T15:02:10.902Z,56.39
2024-02-03T15:04:37.414Z,56.45
2024-02-03T15:07:04.381Z,57.90
2024-02-03T15:09:30.950Z,57.97
2024-02-03T15:11:57.426Z,57.30
2024-02-03T15:14:32.722Z,56.89
2024-02-03T15:16:59.592Z,57.58
2024-02-03T15:19:26.185Z,56.44
2024-02-03T15:21:53.556Z,57.51
2024-02-03T15:24:20.468Z,55.60
2024-02-03T15:26:46.991Z,55.45
2024-02-03T15:29:13.550Z,55.93
2024-02-03T15:31:40.368Z,57.16
2024-02-03T15:34:07.263Z,55.55
2024-02-03T15:36:34.245Z,55.44
2024-02-03T15:39:01.109Z,55.17
2024-02-03T15:41:27.739Z,55.87
2024-02-03T15:43:54.751Z,55.98
2024-02-03T15:46:30.559Z,55.50
2024-02-03T15:49:04.077Z,56.34
2024-02-03T15:51:30.970Z,55.76
2024-02-03T15:53:57.614Z,55.99
2024-02-03T15:56:24.672Z,55.20
2024-02-03T15:58:51.742Z,56.11
2024-02-03T16:01:18.818Z,56.57
2024-02-03T16:03:45.808Z,58.03
2024-02-03T16:06:12.842Z,58.27
2024-02-03T16:08:39.786Z,56.97
2024-02-03T16:11:06.983Z,57.51
2024-02-03T16:13:33.909Z,57.03
2024-02-03T16:16:00.885Z,57.90
2024-02-03T16:18:28.279Z,56.29
2024-02-03T16:20:55.477Z,56.23
2024-02-03T16:23:22.078Z,57.76
2024-02-03T16:25:48.835Z,58.38
2024-02-03T16:28:15.840Z,58.13
2024-02-03T16:30:43.017Z,57.25
2024-02-03T16:33:12.067Z,59.21
2024-02-03T16:35:39.699Z,59.89
2024-02-03T16:38:06.680Z,57.79
2024-02-03T16:40:33.662Z,57.78
2024-02-03T16:43:04.411Z,57.17
2024-02-03T16:45:31.240Z,57.09
2024-02-03T16:47:58.224Z,59.21
2024-02-03T16:50:25.164Z,60.81
2024-02-03T16:52:51.978Z,58.84
2024-02-03T16:55:19.119Z,57.82
2024-02-03T16:57:45.898Z,58.21
2024-02-03T17:00:16.541Z,59.86
2024-02-03T17:02:44.084Z,58.35
2024-02-03T17:05:13.577Z,57.94
2024-02-03T17:07:40.546Z,59.00
2024-02-03T17:10:09.949Z,58.31
2024-02-03T17:12:36.801Z,58.08
2024-02-03T17:15:03.967Z,57.87
2024-02-03T17:17:33.512Z,58.84
2024-02-03T17:20:00.523Z,57.98
2024-02-03T17:22:27.455Z,59.73
2024-02-03T17:24:55.546Z,61.30
2024-02-03T17:27:22.414Z,60.52
2024-02-03T17:29:50.118Z,60.39
2024-02-03T17:32:19.708Z,58.86
2024-02-03T17:34:46.668Z,60.33
2024-02-03T17:37:13.638Z,60.64
2024-02-03T17:39:40.474Z,60.09
2024-02-03T17:42:07.313Z,59.99
2024-02-03T17:44:36.027Z,59.74
2024-02-03T17:47:02.887Z,59.28
2024-02-03T17:49:29.800Z,58.26
2024-02-03T17:51:57.618Z,57.89
2024-02-03T17:54:24.803Z,57.68
2024-02-03T17:56:51.578Z,57.91
2024-02-03T17:59:21.473Z,59.77
2024-02-03T18:01:49.718Z,58.43
2024-02-03T18:04:19.999Z,58.37
2024-02-03T18:06:50.110Z,57.99
2024-02-03T18:09:19.235Z,58.12
2024-02-03T18:11:49.778Z,57.35
2024-02-03T18:14:16.790Z,58.80
2024-02-03T18:16:45.883Z,57.63
2024-02-03T18:19:20.990Z,57.79
2024-02-03T18:21:50.857Z,58.90
2024-02-03T18:24:38.450Z,59.72
2024-02-03T18:27:07.196Z,58.93
2024-02-03T18:29:45.541Z,61.02
2024-02-03T18:32:12.484Z,59.87
2024-02-03T18:34:39.302Z,60.07
2024-02-03T18:37:14.554Z,59.11
2024-02-03T18:39:41.472Z,59.20
2024-02-03T18:42:08.425Z,59.14
2024-02-03T18:44:35.137Z,59.38
2024-02-03T18:47:01.890Z,60.30
2024-02-03T18:49:29.388Z,60.04
2024-02-03T18:51:56.011Z,59.96
2024-02-03T18:54:23.692Z,60.27
2024-02-03T18:56:50.263Z,59.40
2024-02-03T18:59:16.794Z,60.97
2024-02-03T19:01:43.344Z,59.80
2024-02-03T19:04:10.845Z,59.41
2024-02-03T19:06:37.453Z,59.20
2024-02-03T19:09:05.109Z,58.73
2024-02-03T19:11:31.577Z,58.58
2024-02-03T19:13:58.079Z,58.31
2024-02-03T19:16:24.766Z,58.76
2024-02-03T19:18:51.616Z,59.86
2024-02-03T19:21:18.198Z,60.76
2024-02-03T19:23:44.667Z,60.37
2024-02-03T19:26:12.851Z,61.45
2024-02-03T19:28:41.291Z,61.43
2024-02-03T19:31:07.862Z,61.64
2024-02-03T19:33:34.533Z,60.95
2024-02-03T19:36:01.083Z,61.57
2024-02-03T19:38:27.520Z,62.04
2024-02-03T19:40:54.384Z,62.52
2024-02-03T19:43:20.860Z,61.79
2024-02-03T19:45:47.520Z,62.27
2024-02-03T19:48:14.310Z,62.00
2024-02-03T19:50:41.155Z,61.03
2024-02-03T19:53:08.319Z,61.17
2024-02-03T19:55:35.241Z,61.60
2024-02-03T19:58:02.401Z,61.19
2024-02-03T20:00:29.187Z,60.43
2024-02-03T20:02:55.931Z,60.20
2024-02-03T20:05:22.623Z,60.42
2024-02-03T20:07:49.387Z,60.79
2024-02-03T20:10:18.161Z,60.22
2024-02-03T20:12:44.828Z,60.96
2024-02-03T20:15:12.659Z,62.00
2024-02-03T20:17:41.130Z,61.30
2024-02-03T20:20:08.236Z,61.52
2024-02-03T20:22:35.220Z,61.07
2024-02-03T20:25:02.197Z,61.33
2024-02-03T20:27:28.983Z,60.84
2024-02-03T20:29:55.790Z,62.16
2024-02-03T20:32:22.351Z,61.96
2024-02-03T20:34:49.067Z,62.08
2024-02-03T20:37:16.057Z,64.34
2024-02-03T20:39:45.780Z,63.75
2024-02-03T20:42:12.305Z,62.93
2024-02-03T20:44:38.832Z,63.61
2024-02-03T20:47:06.229Z,63.42
2024-02-03T20:49:33.063Z,64.40
2024-02-03T20:52:00.431Z,63.36
2024-02-03T20:54:27.090Z,63.27
2024-02-03T20:56:53.698Z,66.74
2024-02-03T20:59:20.364Z,66.83
2024-02-03T21:01:46.924Z,67.29
2024-02-03T21:04:14.180Z,66.25
2024-02-03T21:06:41.388Z,67.95
2024-02-03T21:09:15.213Z,67.32
2024-02-03T21:11:42.581Z,66.39
2024-02-03T21:14:09.342Z,66.33
2024-02-03T21:16:36.565Z,67.19
2024-02-03T21:19:03.832Z,68.43
2024-02-03T21:21:38.700Z,68.23
2024-02-03T21:24:05.990Z,69.26
2024-02-03T21:26:32.644Z,68.31
2024-02-03T21:28:59.345Z,69.27
2024-02-03T21:31:27.012Z,68.92
2024-02-03T21:33:54.236Z,68.47
2024-02-03T21:36:21.462Z,68.94
2024-02-03T21:38:49.170Z,68.56
2024-02-03T21:41:16.293Z,69.19
2024-02-03T21:43:42.779Z,69.12
2024-02-03T21:46:09.373Z,68.59
2024-02-03T21:48:36.027Z,69.62
2024-02-03T21:51:02.637Z,68.35
2024-02-03T21:53:29.211Z,68.06
2024-02-03T21:55:57.071Z,68.30
2024-02-03T21:58:23.605Z,69.93
2024-02-03T22:00:52.231Z,68.19
2024-02-03T22:03:19.226Z,67.44
2024-02-03T22:05:46.196Z,68.49
2024-02-03T22:08:13.659Z,68.52
2024-02-03T22:10:40.300Z,69.12
2024-02-03T22:13:07.221Z,68.13
2024-02-03T22:15:34.346Z,67.96
2024-02-03T22:18:01.352Z,67.14
2024-02-03T22:20:27.969Z,66.51
2024-02-03T22:22:54.541Z,66.04
2024-02-03T22:25:21.032Z,64.05
2024-02-03T22:27:47.602Z,63.78
2024-02-03T22:30:15.347Z,65.25
2024-02-03T22:32:42.276Z,65.72
2024-02-03T22:35:10.055Z,65.54
2024-02-03T22:37:38.515Z,66.40
2024-02-03T22:40:06.294Z,67.15
2024-02-03T22:42:32.983Z,66.18
2024-02-03T22:44:59.579Z,67.38
2024-02-03T22:47:26.143Z,67.26
2024-02-03T22:49:53.189Z,66.48
2024-02-03T22:52:19.930Z,66.01
2024-02-03T22:54:46.428Z,67.20
2024-02-03T22:57:12.960Z,66.89
2024-02-03T22:59:39.503Z,66.93
2024-02-03T23:02:06.316Z,67.84
2024-02-03T23:07:53.481Z,67.93
2024-02-03T23:10:20.242Z,68.65
2024-02-03T23:12:49.674Z,67.00
2024-02-03T23:15:16.512Z,68.12
2024-02-03T23:17:44.738Z,67.75
2024-02-03T23:20:13.041Z,67.23
2024-02-03T23:22:43.328Z,68.03
2024-02-03T23:25:11.300Z,66.71
2024-02-03T23:29:30.339Z,66.71
2024-02-03T23:31:08.343Z,66.66
2024-02-03T23:33:39.580Z,68.21
2024-02-03T23:36:07.053Z,66.71
2024-02-03T23:38:33.631Z,66.70
2024-02-03T23:41:00.838Z,66.49
2024-02-03T23:43:27.820Z,66.31
2024-02-03T23:45:54.326Z,65.96
2024-02-03T23:48:20.928Z,66.26
2024-02-03T23:50:47.778Z,65.72
2024-02-03T23:53:16.257Z,64.91
2024-02-03T23:55:43.768Z,64.23
2024-02-03T23:58:10.720Z,66.00
